createdAt,value
2022-09-02T00:01:57.503Z,20.68
2022-09-02T00:04:26.464Z,20.65
2022-09-02T00:06:54.491Z,20.62
2022-09-02T00:09:23.348Z,20.59
2022-09-02T00:11:51.430Z,20.55
2022-09-02T00:14:22.529Z,20.51
2022-09-02T00:16:51.835Z,20.47
2022-09-02T00:19:24.149Z,20.43
2022-09-02T00:21:52.119Z,20.39
2022-09-02T00:24:18.559Z,20.37
2022-09-02T00:26:45.641Z,20.33
2022-09-02T00:29:14.529Z,20.29
2022-09-02T00:31:45.541Z,20.26
2022-09-02T00:34:12.060Z,20.22
2022-09-02T00:36:38.629Z,20.19
2022-09-02T00:39:08.278Z,20.17
2022-09-02T00:41:36.188Z,20.14
2022-09-02T00:44:06.471Z,20.11
2022-09-02T00:46:33.991Z,20.07
2022-09-02T00:49:09.550Z,20.03
2022-09-02T00:51:50.821Z,19.98
2022-09-02T00:54:20.686Z,19.95
2022-09-02T00:56:49.801Z,19.88
2022-09-02T00:59:26.959Z,19.86
2022-09-02T01:01:53.524Z,19.85
2022-09-02T01:04:23.053Z,19.85
2022-09-02T01:06:49.530Z,19.85
2022-09-02T01:09:17.237Z,19.86
2022-09-02T01:11:49.508Z,19.86
2022-09-02T01:14:16.814Z,19.84
2022-09-02T01:16:49.614Z,19.86
2022-09-02T01:19:26.119Z,19.85
2022-09-02T01:21:55.120Z,19.85
2022-09-02T01:24:25.411Z,19.88
2022-09-02T01:26:54.401Z,19.92
2022-09-02T01:29:21.241Z,19.95
2022-09-02T01:31:47.718Z,19.97
2022-09-02T01:34:14.835Z,20.01
2022-09-02T01:36:43.165Z,20.03
2022-09-02T01:39:11.348Z,20.02
2022-09-02T01:41:37.810Z,19.99
2022-09-02T01:44:06.052Z,19.98
2022-09-02T01:46:33.960Z,19.96
2022-09-02T01:49:00.607Z,19.89
2022-09-02T01:51:27.566Z,19.83
2022-09-02T01:53:53.999Z,19.79
2022-09-02T01:56:20.480Z,19.74
2022-09-02T01:58:46.957Z,19.71
2022-09-02T02:01:13.591Z,19.65
2022-09-02T02:03:41.582Z,19.61
2022-09-02T02:06:17.472Z,19.55
2022-09-02T02:08:44.233Z,19.50
2022-09-02T02:11:10.939Z,19.48
2022-09-02T02:13:37.913Z,19.46
2022-09-02T02:16:05.709Z,19.42
2022-09-02T02:18:32.272Z,19.41
2022-09-02T02:20:58.677Z,19.40
2022-09-02T02:23:25.700Z,19.41
2022-09-02T02:25:52.162Z,19.42
2022-09-02T02:28:19.987Z,19.41
2022-09-02T02:30:46.739Z,19.39
2022-09-02T02:33:13.596Z,19.40
2022-09-02T02:35:41.802Z,19.40
2022-09-02T02:38:09.797Z,19.40
2022-09-02T02:40:40.793Z,19.37
2022-09-02T02:43:07.183Z,19.39
2022-09-02T02:45:33.588Z,19.34
2022-09-02T02:48:00.004Z,19.31
2022-09-02T02:50:26.631Z,19.33
2022-09-02T02:52:54.798Z,19.31
2022-09-02T02:55:22.807Z,19.30
2022-09-02T02:57:50.383Z,19.29
2022-09-02T03:00:21.515Z,19.25
2022-09-02T03:02:49.543Z,19.24
2022-09-02T03:05:18.687Z,19.24
2022-09-02T03:07:45.106Z,19.22
2022-09-02T03:10:13.128Z,19.19
2022-09-02T03:12:40.149Z,19.14
2022-09-02T03:15:08.615Z,19.07
2022-09-02T03:17:35.333Z,19.03
2022-09-02T03:20:02.170Z,18.94
2022-09-02T03:22:29.090Z,18.85
2022-09-02T03:24:55.572Z,18.77
2022-09-02T03:27:22.022Z,18.67
2022-09-02T03:29:48.420Z,18.59
2022-09-02T03:32:14.902Z,18.49
2022-09-02T03:34:42.352Z,18.42
2022-09-02T03:37:09.378Z,18.37
2022-09-02T03:39:37.713Z,18.31
2022-09-02T03:42:05.587Z,18.21
2022-09-02T03:44:34.229Z,18.10
2022-09-02T03:47:01.426Z,18.01
2022-09-02T03:49:28.501Z,17.92
2022-09-02T03:51:55.139Z,17.84
2022-09-02T03:54:21.616Z,17.77
2022-09-02T03:56:48.147Z,17.68
2022-09-02T03:59:14.612Z,17.59
2022-09-02T04:01:41.191Z,17.54
2022-09-02T04:04:08.105Z,17.47
2022-09-02T04:06:34.871Z,17.42
2022-09-02T04:09:01.872Z,17.34
2022-09-02T04:11:28.591Z,17.25
2022-09-02T04:13:55.153Z,17.18
2022-09-02T04:16:28.737Z,17.09
2022-09-02T04:18:57.627Z,17.04
2022-09-02T04:21:25.496Z,16.98
2022-09-02T04:23:52.569Z,16.95
2022-09-02T04:26:20.345Z,16.93
2022-09-02T04:28:48.572Z,16.89
2022-09-02T04:31:18.172Z,16.89
2022-09-02T04:33:45.643Z,16.87
2022-09-02T04:36:15.238Z,16.87
2022-09-02T04:38:42.174Z,16.85
2022-09-02T04:41:15.059Z,16.81
2022-09-02T04:43:42.164Z,16.73
2022-09-02T04:46:11.150Z,16.71
2022-09-02T04:48:38.892Z,16.67
2022-09-02T04:51:17.470Z,16.64
2022-09-02T04:53:45.119Z,16.59
2022-09-02T04:56:15.860Z,16.56
2022-09-02T04:58:44.391Z,16.52
2022-09-02T05:01:16.809Z,16.54
2022-09-02T05:03:44.986Z,16.52
2022-09-02T05:06:14.146Z,16.48
2022-09-02T05:08:42.228Z,16.46
2022-09-02T05:11:14.300Z,16.44
2022-09-02T05:13:41.727Z,16.41
2022-09-02T05:16:08.320Z,16.39
2022-09-02T05:18:35.037Z,16.36
2022-09-02T05:21:06.354Z,16.36
2022-09-02T05:23:33.040Z,16.30
2022-09-02T05:25:59.465Z,16.28
2022-09-02T05:28:25.876Z,16.28
2022-09-02T05:30:52.313Z,16.26
2022-09-02T05:33:18.722Z,16.24
2022-09-02T05:35:46.022Z,16.21
2022-09-02T05:38:17.208Z,16.21
2022-09-02T05:40:43.699Z,16.21
2022-09-02T05:43:10.175Z,16.22
2022-09-02T05:45:39.082Z,16.20
2022-09-02T05:48:26.329Z,16.19
2022-09-02T05:50:57.592Z,16.18
2022-09-02T05:53:26.891Z,16.17
2022-09-02T05:55:53.552Z,16.16
2022-09-02T05:58:19.977Z,16.17
2022-09-02T06:00:46.400Z,16.18
2022-09-02T06:03:13.565Z,16.20
2022-09-02T06:05:41.101Z,16.21
2022-09-02T06:08:07.529Z,16.25
2022-09-02T06:10:34.062Z,16.27
2022-09-02T06:13:00.569Z,16.29
2022-09-02T06:15:28.486Z,16.35
2022-09-02T06:17:59.366Z,16.40
2022-09-02T06:20:25.808Z,16.46
2022-09-02T06:22:52.201Z,16.52
2022-09-02T06:25:20.861Z,16.60
2022-09-02T06:27:47.290Z,16.65
2022-09-02T06:30:13.876Z,16.74
2022-09-02T06:32:40.304Z,16.82
2022-09-02T06:35:08.130Z,16.91
2022-09-02T06:37:34.574Z,17.01
2022-09-02T06:40:01.140Z,17.12
2022-09-02T06:42:27.602Z,17.21
2022-09-02T06:44:54.012Z,17.33
2022-09-02T06:47:20.414Z,17.44
2022-09-02T06:49:46.885Z,17.55
2022-09-02T06:52:14.310Z,17.66
2022-09-02T06:54:40.701Z,17.76
2022-09-02T06:57:07.139Z,17.87
2022-09-02T06:59:33.556Z,17.99
2022-09-02T07:02:00.143Z,18.12
2022-09-02T07:04:45.423Z,18.22
2022-09-02T07:07:12.337Z,18.33
2022-09-02T07:09:39.159Z,18.44
2022-09-02T07:12:06.191Z,18.56
2022-09-02T07:14:38.128Z,18.69
2022-09-02T07:17:04.899Z,18.76
2022-09-02T07:19:31.814Z,18.85
2022-09-02T07:21:58.648Z,18.96
2022-09-02T07:24:25.153Z,19.02
2022-09-02T07:26:55.548Z,19.08
2022-09-02T07:29:23.008Z,19.10
2022-09-02T07:31:50.101Z,19.20
2022-09-02T07:34:18.100Z,19.30
2022-09-02T07:36:45.924Z,19.34
2022-09-02T07:39:13.968Z,19.43
2022-09-02T07:41:41.585Z,19.57
2022-09-02T07:44:08.803Z,19.59
2022-09-02T07:46:36.644Z,19.57
2022-09-02T07:49:09.169Z,19.57
2022-09-02T07:51:40.524Z,19.67
2022-09-02T07:54:09.165Z,19.80
2022-09-02T07:56:35.918Z,19.89
2022-09-02T07:59:03.037Z,19.88
2022-09-02T08:01:30.086Z,20.00
2022-09-02T08:03:57.914Z,20.03
2022-09-02T08:06:33.822Z,20.07
2022-09-02T08:09:03.942Z,20.14
2022-09-02T08:11:32.494Z,20.17
2022-09-02T08:13:59.418Z,20.17
2022-09-02T08:16:25.928Z,20.25
2022-09-02T08:18:52.587Z,20.33
2022-09-02T08:21:19.015Z,20.51
2022-09-02T08:23:50.148Z,20.61
2022-09-02T08:26:17.917Z,20.72
2022-09-02T08:28:44.731Z,20.78
2022-09-02T08:31:11.165Z,20.91
2022-09-02T08:33:37.649Z,20.89
2022-09-02T08:36:06.795Z,21.04
2022-09-02T08:38:34.127Z,21.14
2022-09-02T08:41:00.991Z,21.30
2022-09-02T08:43:38.426Z,21.32
2022-09-02T08:46:08.660Z,21.38
2022-09-02T08:48:45.152Z,21.43
2022-09-02T08:51:24.211Z,21.44
2022-09-02T08:54:07.813Z,21.48
2022-09-02T08:56:34.454Z,21.59
2022-09-02T08:59:03.706Z,21.66
2022-09-02T09:01:39.141Z,21.68
2022-09-02T09:04:15.039Z,21.80
2022-09-02T09:06:59.367Z,21.89
2022-09-02T09:09:46.537Z,22.00
2022-09-02T09:12:51.710Z,22.12
2022-09-02T09:15:30.974Z,22.33
2022-09-02T09:18:03.604Z,22.53
2022-09-02T09:20:38.563Z,22.60
2022-09-02T09:23:44.497Z,22.80
2022-09-02T09:26:13.368Z,22.93
2022-09-02T09:28:49.048Z,23.10
2022-09-02T09:31:20.182Z,23.21
2022-09-02T09:34:07.737Z,23.30
2022-09-02T09:36:40.208Z,23.33
2022-09-02T09:39:18.860Z,23.42
2022-09-02T09:41:48.089Z,23.54
2022-09-02T09:44:48.089Z,23.72
2022-09-02T09:47:18.201Z,23.87
2022-09-02T09:50:05.859Z,24.03
2022-09-02T09:52:32.803Z,24.17
2022-09-02T09:55:16.466Z,23.87
2022-09-02T09:57:51.067Z,23.97
2022-09-02T10:00:32.552Z,24.19
2022-09-02T10:03:02.523Z,24.28
2022-09-02T10:05:39.164Z,24.46
2022-09-02T10:08:20.297Z,24.54
2022-09-02T10:11:00.840Z,24.57
2022-09-02T10:13:32.715Z,24.63
2022-09-02T10:16:25.335Z,24.61
2022-09-02T10:18:57.548Z,24.81
2022-09-02T10:21:58.220Z,25.23
2022-09-02T10:24:52.791Z,25.57
2022-09-02T10:27:47.696Z,25.78
2022-09-02T10:30:21.449Z,25.89
2022-09-02T10:32:59.400Z,25.99
2022-09-02T10:35:34.221Z,26.10
2022-09-02T10:38:09.762Z,26.11
2022-09-02T10:41:06.926Z,26.16
2022-09-02T10:43:57.493Z,26.45
2022-09-02T10:46:26.224Z,26.22
2022-09-02T10:49:11.809Z,26.03
2022-09-02T10:52:14.737Z,26.13
2022-09-02T10:54:57.062Z,26.43
2022-09-02T10:57:38.633Z,26.74
2022-09-02T11:00:14.498Z,26.81
2022-09-02T11:03:01.051Z,27.01
2022-09-02T11:05:34.921Z,27.23
2022-09-02T11:08:09.758Z,27.56
2022-09-02T11:10:49.995Z,27.78
2022-09-02T11:13:24.826Z,27.85
2022-09-02T11:16:02.355Z,27.76
2022-09-02T11:18:43.642Z,27.71
2022-09-02T11:21:56.157Z,27.86
2022-09-02T11:24:33.380Z,27.90
2022-09-02T11:27:41.723Z,28.09
2022-09-02T11:30:13.136Z,28.13
2022-09-02T11:33:11.034Z,28.56
2022-09-02T11:35:39.351Z,28.83
2022-09-02T11:38:23.183Z,28.80
2022-09-02T11:43:52.166Z,28.94
2022-09-02T11:46:25.874Z,29.18
2022-09-02T11:49:21.125Z,29.13
2022-09-02T11:52:05.632Z,29.18
2022-09-02T11:54:41.760Z,29.15
2022-09-02T11:57:13.891Z,28.92
2022-09-02T11:59:52.871Z,29.00
2022-09-02T12:02:41.019Z,28.95
2022-09-02T12:05:29.895Z,29.13
2022-09-02T12:07:57.781Z,29.21
2022-09-02T12:10:39.892Z,29.14
2022-09-02T12:13:09.455Z,29.12
2022-09-02T12:15:36.511Z,28.89
2022-09-02T12:18:30.985Z,28.99
2022-09-02T12:20:57.313Z,29.37
2022-09-02T12:23:53.676Z,29.20
2022-09-02T12:26:29.405Z,28.99
2022-09-02T12:29:22.959Z,29.42
2022-09-02T12:31:51.447Z,29.62
2022-09-02T12:34:20.817Z,29.49
2022-09-02T12:36:52.034Z,29.56
2022-09-02T12:39:24.952Z,29.80
2022-09-02T12:41:56.792Z,29.80
2022-09-02T12:44:35.497Z,29.86
2022-09-02T12:47:09.290Z,29.94
2022-09-02T12:49:35.704Z,30.08
2022-09-02T12:52:04.037Z,30.18
2022-09-02T12:54:36.181Z,30.23
2022-09-02T12:57:03.977Z,30.32
2022-09-02T12:59:33.451Z,30.27
2022-09-02T13:02:31.007Z,30.13
2022-09-02T13:05:03.598Z,29.99
2022-09-02T13:07:59.688Z,29.90
2022-09-02T13:10:59.851Z,29.90
2022-09-02T13:14:04.134Z,29.80
2022-09-02T13:16:39.175Z,29.88
2022-09-02T13:19:23.539Z,30.03
2022-09-02T13:21:59.114Z,30.32
2022-09-02T13:24:44.869Z,30.48
2022-09-02T13:27:37.652Z,30.23
2022-09-02T13:30:22.973Z,30.39
2022-09-02T13:32:59.471Z,30.46
2022-09-02T13:35:28.504Z,30.48
2022-09-02T13:38:00.635Z,30.36
2022-09-02T13:40:30.551Z,30.48
2022-09-02T13:43:01.458Z,30.63
2022-09-02T13:45:35.984Z,30.83
2022-09-02T13:48:09.585Z,30.89
2022-09-02T13:50:37.219Z,30.97
2022-09-02T13:55:56.212Z,31.03
2022-09-02T13:58:35.026Z,30.94
2022-09-02T14:01:34.628Z,30.93
2022-09-02T14:04:09.433Z,31.00
2022-09-02T14:06:40.189Z,30.94
2022-09-02T14:09:11.726Z,30.92
2022-09-02T14:11:42.188Z,30.78
2022-09-02T14:14:16.427Z,30.71
2022-09-02T14:16:42.886Z,30.93
2022-09-02T14:19:10.812Z,31.04
2022-09-02T14:21:45.870Z,31.25
2022-09-02T14:24:15.145Z,31.21
2022-09-02T14:26:47.287Z,31.14
2022-09-02T14:29:16.544Z,30.92
2022-09-02T14:31:43.977Z,31.27
2022-09-02T14:34:32.733Z,31.62
2022-09-02T14:36:59.382Z,31.63
2022-09-02T14:39:25.849Z,31.55
2022-09-02T14:41:54.799Z,31.45
2022-09-02T14:44:32.668Z,31.48
2022-09-02T14:47:05.634Z,31.51
2022-09-02T14:49:36.573Z,31.57
2022-09-02T14:52:15.196Z,31.88
2022-09-02T14:54:48.470Z,31.93
2022-09-02T14:57:33.054Z,32.15
2022-09-02T15:00:11.337Z,32.29
2022-09-02T15:02:43.599Z,32.48
2022-09-02T15:05:14.388Z,32.29
2022-09-02T15:07:41.476Z,32.31
2022-09-02T15:10:09.651Z,32.32
2022-09-02T15:12:50.293Z,32.58
2022-09-02T15:15:17.311Z,32.70
2022-09-02T15:17:43.930Z,32.49
2022-09-02T15:20:11.276Z,32.56
2022-09-02T15:22:38.519Z,32.51
2022-09-02T15:25:07.945Z,32.82
2022-09-02T15:27:34.981Z,32.99
2022-09-02T15:30:01.581Z,32.81
2022-09-02T15:32:28.261Z,32.77
2022-09-02T15:34:54.788Z,32.79
2022-09-02T15:37:21.157Z,32.76
2022-09-02T15:39:48.740Z,32.81
2022-09-02T15:42:15.327Z,32.94
2022-09-02T15:44:41.905Z,32.72
2022-09-02T15:47:08.337Z,32.64
2022-09-02T15:49:35.001Z,32.77
2022-09-02T15:52:02.939Z,32.77
2022-09-02T15:54:31.564Z,32.72
2022-09-02T15:56:59.464Z,32.56
2022-09-02T15:59:27.362Z,32.81
2022-09-02T16:01:56.788Z,32.68
2022-09-02T16:04:23.453Z,32.50
2022-09-02T16:06:55.251Z,32.30
2022-09-02T16:09:22.153Z,32.43
2022-09-02T16:11:55.887Z,32.38
2022-09-02T16:14:23.964Z,32.28
2022-09-02T16:16:53.155Z,32.21
2022-09-02T16:19:21.493Z,32.29
2022-09-02T16:21:49.101Z,32.28
2022-09-02T16:24:15.661Z,31.91
2022-09-02T16:26:42.648Z,31.97
2022-09-02T16:29:13.082Z,32.07
2022-09-02T16:31:41.447Z,32.25
2022-09-02T16:34:13.688Z,32.26
2022-09-02T16:36:43.323Z,32.23
2022-09-02T16:39:12.295Z,32.24
2022-09-02T16:41:45.074Z,31.99
2022-09-02T16:44:20.090Z,31.80
2022-09-02T16:46:48.152Z,31.87
2022-09-02T16:49:19.571Z,31.81
2022-09-02T16:51:47.849Z,31.58
2022-09-02T16:54:17.798Z,31.49
2022-09-02T16:56:47.947Z,31.25
2022-09-02T16:59:14.387Z,30.81
2022-09-02T17:01:41.421Z,30.48
2022-09-02T17:04:08.543Z,30.13
2022-09-02T17:06:39.885Z,29.75
2022-09-02T17:09:08.983Z,29.48
2022-09-02T17:11:39.626Z,29.27
2022-09-02T17:14:17.665Z,29.02
2022-09-02T17:16:49.046Z,28.79
2022-09-02T17:19:21.341Z,28.67
2022-09-02T17:21:52.743Z,28.52
2022-09-02T17:24:21.698Z,28.40
2022-09-02T17:26:50.708Z,28.25
2022-09-02T17:29:47.522Z,28.02
2022-09-02T17:32:07.256Z,27.84
2022-09-02T17:34:34.329Z,27.74
2022-09-02T17:37:00.742Z,27.64
2022-09-02T17:39:27.307Z,27.55
2022-09-02T17:41:59.972Z,27.45
2022-09-02T17:44:28.855Z,27.29
2022-09-02T17:46:57.654Z,27.16
2022-09-02T17:49:24.040Z,27.06
2022-09-02T17:51:50.541Z,26.96
2022-09-02T17:54:17.291Z,26.84
2022-09-02T17:57:10.324Z,26.71
2022-09-02T17:59:58.960Z,26.56
2022-09-02T18:02:55.654Z,26.43
2022-09-02T18:05:29.048Z,26.27
2022-09-02T18:08:09.694Z,26.17
2022-09-02T18:10:37.427Z,26.03
2022-09-02T18:13:08.379Z,25.91
2022-09-02T18:15:56.411Z,25.78
2022-09-02T18:18:25.482Z,25.64
2022-09-02T18:21:17.355Z,25.53
2022-09-02T18:23:52.639Z,25.37
2022-09-02T18:26:44.882Z,25.26
2022-09-02T18:29:20.264Z,25.09
2022-09-02T18:32:00.231Z,24.97
2022-09-02T18:34:42.988Z,24.84
2022-09-02T18:37:27.932Z,24.69
2022-09-02T18:40:18.434Z,24.52
2022-09-02T18:43:21.381Z,24.35
2022-09-02T18:45:54.615Z,24.18
2022-09-02T18:48:29.507Z,24.04
2022-09-02T18:51:03.763Z,23.94
2022-09-02T18:53:42.803Z,23.78
2022-09-02T18:56:12.098Z,23.65
2022-09-02T18:58:44.545Z,23.56
2022-09-02T19:01:20.812Z,23.43
2022-09-02T19:03:48.408Z,23.29
2022-09-02T19:06:21.562Z,23.21
2022-09-02T19:08:52.628Z,23.11
2022-09-02T19:11:19.067Z,23.03
2022-09-02T19:13:55.441Z,22.95
2022-09-02T19:16:31.886Z,22.84
2022-09-02T19:18:58.381Z,22.72
2022-09-02T19:21:30.054Z,22.62
2022-09-02T19:23:56.540Z,22.55
2022-09-02T19:26:24.009Z,22.48
2022-09-02T19:28:51.354Z,22.42
2022-09-02T19:31:21.544Z,22.41
2022-09-02T19:33:55.091Z,22.37
2022-09-02T19:36:24.552Z,22.33
2022-09-02T19:38:52.840Z,22.27
2022-09-02T19:41:19.262Z,22.17
2022-09-02T19:43:46.099Z,22.04
2022-09-02T19:46:27.950Z,21.94
2022-09-02T19:48:58.936Z,21.80
2022-09-02T19:51:27.311Z,21.73
2022-09-02T19:53:56.419Z,21.60
2022-09-02T19:56:22.885Z,21.50
2022-09-02T19:58:49.656Z,21.40
2022-09-02T20:01:16.122Z,21.32
2022-09-02T20:03:42.632Z,21.22
2022-09-02T20:06:09.064Z,21.11
2022-09-02T20:08:35.473Z,21.03
2022-09-02T20:11:04.552Z,20.95
2022-09-02T20:13:41.085Z,20.86
2022-09-02T20:16:16.624Z,20.76
2022-09-02T20:18:46.149Z,20.71
2022-09-02T20:21:19.393Z,20.66
2022-09-02T20:23:45.883Z,20.57
2022-09-02T20:26:18.258Z,20.52
2022-09-02T20:29:22.860Z,20.45
2022-09-02T20:32:05.954Z,20.33
2022-09-02T20:34:58.174Z,20.27
2022-09-02T20:37:59.314Z,20.22
2022-09-02T20:40:52.895Z,20.17
2022-09-02T20:43:51.145Z,20.11
2022-09-02T20:46:25.509Z,20.08
2022-09-02T20:49:27.739Z,20.02
2022-09-02T20:52:02.439Z,19.92
2022-09-02T20:54:48.358Z,19.84
2022-09-02T20:58:15.974Z,19.74
2022-09-02T21:01:02.121Z,19.60
2022-09-02T21:03:40.909Z,19.52
2022-09-02T21:06:10.814Z,19.43
2022-09-02T21:09:28.419Z,19.35
2022-09-02T21:12:03.871Z,19.21
2022-09-02T21:14:46.090Z,19.13
2022-09-02T21:17:20.804Z,19.06
2022-09-02T21:20:29.662Z,18.95
2022-09-02T21:23:01.069Z,18.84
2022-09-02T21:25:38.077Z,18.78
2022-09-02T21:28:21.958Z,18.69
2022-09-02T21:30:54.144Z,18.61
2022-09-02T21:33:25.602Z,18.54
2022-09-02T21:35:53.675Z,18.47
2022-09-02T21:38:42.374Z,18.41
2022-09-02T21:41:35.176Z,18.32
2022-09-02T21:44:38.864Z,18.24
2022-09-02T21:47:15.276Z,18.18
2022-09-02T21:50:08.873Z,18.12
2022-09-02T21:52:48.339Z,18.04
2022-09-02T21:55:41.141Z,17.94
2022-09-02T21:58:44.926Z,17.87
2022-09-02T22:01:21.838Z,17.80
2022-09-02T22:04:02.083Z,17.75
2022-09-02T22:06:43.159Z,17.71
2022-09-02T22:09:22.683Z,17.68
2022-09-02T22:11:57.153Z,17.64
2022-09-02T22:14:49.952Z,17.57
2022-09-02T22:17:30.219Z,17.54
2022-09-02T22:19:59.270Z,17.49
2022-09-02T22:22:47.591Z,17.45
2022-09-02T22:25:16.842Z,17.41
2022-09-02T22:28:14.342Z,17.40
2022-09-02T22:30:52.327Z,17.35
2022-09-02T22:33:24.036Z,17.29
2022-09-02T22:36:06.309Z,17.24
2022-09-02T22:38:41.967Z,17.18
2022-09-02T22:41:37.979Z,17.12
2022-09-02T22:44:09.534Z,17.06
2022-09-02T22:47:16.048Z,17.01
2022-09-02T22:50:09.231Z,16.95
2022-09-02T22:52:49.422Z,16.92
2022-09-02T22:55:58.265Z,16.90
2022-09-02T22:58:42.807Z,16.86
2022-09-02T23:01:31.200Z,16.86
2022-09-02T23:04:22.344Z,16.86
2022-09-02T23:06:48.772Z,16.83
2022-09-02T23:09:18.419Z,16.82
2022-09-02T23:11:47.507Z,16.83
2022-09-02T23:14:35.395Z,16.83
2022-09-02T23:17:20.751Z,16.82
2022-09-02T23:20:02.724Z,16.83
2022-09-02T23:22:47.974Z,16.80
2022-09-02T23:25:43.752Z,16.80
2022-09-02T23:28:32.107Z,16.79
2022-09-02T23:31:37.023Z,16.76
2022-09-02T23:34:20.793Z,16.76
2022-09-02T23:37:12.861Z,16.73
2022-09-02T23:40:21.000Z,16.69
2022-09-02T23:42:48.896Z,16.63
2022-09-02T23:45:25.344Z,16.59
2022-09-02T23:48:17.560Z,16.54
2022-09-02T23:51:05.445Z,16.47
2022-09-02T23:53:53.172Z,16.46
2022-09-02T23:56:41.606Z,16.43
2022-09-02T23:59:27.397Z,16.38
